Strona główna
METAR-TAF:

METAR-TAF

Lotnisko :

Port lotniczy Ibadan

Ibadan, Nigeria

Szerokość geograficzna: 07-26N, Długość geograficzna: 003-54E, wysokość: 234 m

Aktualna obserwacja pogody

Raport powstał 2 godziny i 0 minut temu, godzina 20:00 UTC
Wiatr 5 kt od południe
Temperatura 29°C
Wilgotność 35%
Ciśnienie 1011 hPa
Widzialność 10 km lub więcej
Brak chmur poniżej 1500 m i brak chmur cumulonimbus

METAR: DNIB 292000Z 19005KT CAVOK 29/12 Q1011

czas: 23:00 (22:00 UTC)

Prognoza

Raport powstał 11 godziny i 0 minut temu, godzina 11:00 UTC
Prognoza ważna od 29 godzina 12 UTC do 30 godzina 18 UTC
Wiatr 10 kt od północno-północny wschód
Widzialność: 5000 m
zmętnienie
Stopniowe zmiany
od 29 godzina 17 UTC do 29 godzina 19 UTC
Wiatr 2 kt z kierunków zmiennych
Przejściowo
od 30 godzina 05 UTC do 30 godzina 07 UTC
Widzialność: 1500 m

TAF: DNIB 291100Z 2912/3018 02010KT 5000 HZ NSC BECMG 2917/2919 VRB02KT TEMPO 3005/3007 1500

Obserwacja i prognoza pogody dla ponad 4000 lotnisk (raport METAR i TAF).

Dostępne stacje oznaczono żółtymi i czerwonymi punktami na mapie.

Najedź kursorem aby zobaczyć nazwę stacji.

Kliknij aby zobaczyć obserwacje i prognozy pogody.

Aby zmienić mapę: kliknij na zielony przycisk z czarnym krzyżykiem, aby powiększyć; na zielony przycisk z myślnikiem, aby pomniejszyć; na zielone strzałki, aby przejść do map sąsiednich.


METAR-TAF: